createdAt,value
2022-10-05T00:00:17.050Z,101990.11
2022-10-05T00:02:44.389Z,101991.02
2022-10-05T00:05:33.004Z,101991.11
2022-10-05T00:08:21.702Z,101995.98
2022-10-05T00:10:49.838Z,101996.42
2022-10-05T00:13:25.463Z,101995.66
2022-10-05T00:16:00.284Z,101997.70
2022-10-05T00:18:27.708Z,101997.16
2022-10-05T00:20:55.143Z,101997.05
2022-10-05T00:23:30.237Z,101998.29
2022-10-05T00:26:17.493Z,101997.48
2022-10-05T00:28:44.625Z,102004.05
2022-10-05T00:31:26.675Z,102002.13
2022-10-05T00:33:55.183Z,101999.46
2022-10-05T00:36:22.567Z,101998.88
2022-10-05T00:38:51.338Z,101999.83
2022-10-05T00:41:51.692Z,101996.57
2022-10-05T00:44:21.577Z,101996.08
2022-10-05T00:47:11.947Z,101996.20
2022-10-05T00:50:01.344Z,101993.96
2022-10-05T00:52:59.230Z,101987.43
2022-10-05T00:55:44.015Z,101985.02
2022-10-05T00:58:20.237Z,101982.36
2022-10-05T01:01:05.476Z,101979.52
2022-10-05T01:04:21.973Z,101974.60
2022-10-05T01:06:48.961Z,101974.39
2022-10-05T01:09:29.943Z,101976.37
2022-10-05T01:12:05.983Z,101973.59
2022-10-05T01:14:40.292Z,101976.48
2022-10-05T01:17:26.307Z,101974.55
2022-10-05T01:20:20.612Z,101973.34
2022-10-05T01:23:17.767Z,101973.62
2022-10-05T01:26:07.939Z,101974.31
2022-10-05T01:28:47.148Z,101975.55
2022-10-05T01:31:26.120Z,101976.02
2022-10-05T01:34:11.300Z,101972.98
2022-10-05T01:36:59.813Z,101969.39
2022-10-05T01:39:29.658Z,101968.70
2022-10-05T01:42:28.988Z,101968.11
2022-10-05T01:45:05.019Z,101967.89
2022-10-05T01:47:44.933Z,101962.98
2022-10-05T01:50:49.403Z,101959.08
2022-10-05T01:53:25.031Z,101957.80
2022-10-05T01:55:51.947Z,101958.98
2022-10-05T01:58:22.855Z,101958.23
2022-10-05T02:01:08.303Z,101962.54
2022-10-05T02:04:01.371Z,101961.30
2022-10-05T02:06:32.589Z,101960.23
2022-10-05T02:09:26.381Z,101959.71
2022-10-05T02:12:01.267Z,101960.55
2022-10-05T02:14:36.735Z,101960.83
2022-10-05T02:17:11.161Z,101962.64
2022-10-05T02:19:52.730Z,101959.91
2022-10-05T02:22:29.008Z,101958.69
2022-10-05T02:25:03.244Z,101959.44
2022-10-05T02:27:34.735Z,101959.23
2022-10-05T02:30:06.451Z,101960.98
2022-10-05T02:32:49.989Z,101959.11
2022-10-05T02:35:20.036Z,101961.30
2022-10-05T02:37:58.034Z,101962.65
2022-10-05T02:40:43.676Z,101961.10
2022-10-05T02:43:32.770Z,101960.61
2022-10-05T02:46:19.079Z,101957.57
2022-10-05T02:49:08.815Z,101955.91
2022-10-05T02:52:00.983Z,101956.16
2022-10-05T02:54:46.427Z,101957.55
2022-10-05T02:57:27.228Z,101957.71
2022-10-05T03:00:01.750Z,101959.81
2022-10-05T03:02:47.609Z,101957.75
2022-10-05T03:05:32.238Z,101955.61
2022-10-05T03:08:05.342Z,101957.75
2022-10-05T03:10:44.428Z,101960.58
2022-10-05T03:13:17.906Z,101964.69
2022-10-05T03:15:54.224Z,101963.79
2022-10-05T03:18:43.412Z,101964.32
2022-10-05T03:21:23.940Z,101960.34
2022-10-05T03:24:06.295Z,101958.90
2022-10-05T03:26:45.074Z,101959.30
2022-10-05T03:29:43.684Z,101958.68
2022-10-05T03:32:44.002Z,101961.95
2022-10-05T03:35:27.751Z,101960.73
2022-10-05T03:38:12.378Z,101958.33
2022-10-05T03:40:50.632Z,101958.12
2022-10-05T03:43:26.643Z,101961.33
2022-10-05T03:46:00.870Z,101963.52
2022-10-05T03:49:02.348Z,101965.23
2022-10-05T03:51:35.131Z,101969.61
2022-10-05T03:54:22.679Z,101975.70
2022-10-05T03:56:55.884Z,101978.27
2022-10-05T03:59:46.194Z,101973.52
2022-10-05T04:02:23.227Z,101976.83
2022-10-05T04:04:57.054Z,101977.36
2022-10-05T04:07:33.515Z,101976.87
2022-10-05T04:10:03.420Z,101979.42
2022-10-05T04:12:38.786Z,101977.14
2022-10-05T04:15:33.880Z,101978.36
2022-10-05T04:18:09.080Z,101982.33
2022-10-05T04:20:44.965Z,101978.96
2022-10-05T04:23:43.319Z,101986.20
2022-10-05T04:26:19.022Z,101986.87
2022-10-05T04:28:54.252Z,101986.48
2022-10-05T04:31:44.648Z,101991.24
2022-10-05T04:34:43.933Z,101989.81
2022-10-05T04:37:21.936Z,101988.10
2022-10-05T04:39:59.186Z,101986.91
2022-10-05T04:42:43.326Z,101989.05
2022-10-05T04:45:34.184Z,101988.42
2022-10-05T04:48:39.834Z,101984.52
2022-10-05T04:51:38.542Z,101988.21
2022-10-05T04:54:37.936Z,101986.12
2022-10-05T04:57:35.875Z,101989.70
2022-10-05T05:00:10.252Z,101987.53
2022-10-05T05:03:15.086Z,101992.03
2022-10-05T05:06:17.749Z,101989.84
2022-10-05T05:09:02.758Z,101992.46
2022-10-05T05:11:49.433Z,101987.91
2022-10-05T05:14:29.872Z,101989.58
2022-10-05T05:17:20.997Z,101994.07
2022-10-05T05:20:25.736Z,102002.45
2022-10-05T05:23:20.001Z,102005.08
2022-10-05T05:26:05.714Z,102007.32
2022-10-05T05:29:01.739Z,102014.59
2022-10-05T05:31:48.742Z,102021.11
2022-10-05T05:34:25.730Z,102022.83
2022-10-05T05:37:00.885Z,102026.02
2022-10-05T05:39:46.294Z,102023.63
2022-10-05T05:42:45.518Z,102023.77
2022-10-05T05:45:23.019Z,102027.04
2022-10-05T05:47:57.118Z,102030.35
2022-10-05T05:50:48.061Z,102032.16
2022-10-05T05:53:25.490Z,102036.02
2022-10-05T05:55:59.365Z,102037.56
2022-10-05T05:58:52.258Z,102039.59
2022-10-05T06:01:33.292Z,102035.90
2022-10-05T06:04:11.335Z,102033.14
2022-10-05T06:06:44.823Z,102039.81
2022-10-05T06:09:24.706Z,102043.81
2022-10-05T06:12:20.033Z,102047.92
2022-10-05T06:14:54.526Z,102051.95
2022-10-05T06:17:29.179Z,102059.32
2022-10-05T06:20:04.688Z,102059.78
2022-10-05T06:22:38.957Z,102067.96
2022-10-05T06:25:12.013Z,102068.40
2022-10-05T06:28:02.516Z,102074.21
2022-10-05T06:30:49.322Z,102078.39
2022-10-05T06:33:40.760Z,102081.48
2022-10-05T06:36:34.835Z,102085.13
2022-10-05T06:39:46.075Z,102086.52
2022-10-05T06:42:40.612Z,102088.86
2022-10-05T06:45:53.307Z,102088.61
2022-10-05T06:48:45.063Z,102088.60
2022-10-05T06:51:43.831Z,102088.70
2022-10-05T06:54:56.203Z,102087.95
2022-10-05T06:58:15.532Z,102095.45
2022-10-05T07:01:11.180Z,102099.30
2022-10-05T07:04:03.470Z,102100.46
2022-10-05T07:06:54.990Z,102106.29
2022-10-05T07:09:37.632Z,102114.58
2022-10-05T07:12:16.498Z,102116.23
2022-10-05T07:15:21.469Z,102119.23
2022-10-05T07:17:57.648Z,102120.61
2022-10-05T07:20:53.832Z,102123.70
2022-10-05T07:23:52.797Z,102124.95
2022-10-05T07:26:46.833Z,102133.81
2022-10-05T07:29:20.142Z,102139.06
2022-10-05T07:31:57.688Z,102141.73
2022-10-05T07:34:39.352Z,102142.90
2022-10-05T07:37:33.516Z,102149.89
2022-10-05T07:40:10.337Z,102155.09
2022-10-05T07:42:52.115Z,102158.45
2022-10-05T07:45:24.841Z,102161.60
2022-10-05T07:48:04.540Z,102157.85
2022-10-05T07:50:37.756Z,102164.80
2022-10-05T07:53:14.260Z,102158.11
2022-10-05T07:55:47.650Z,102160.69
2022-10-05T07:58:24.653Z,102154.88
2022-10-05T08:01:11.461Z,102158.24
2022-10-05T08:04:08.298Z,102160.86
2022-10-05T08:06:41.026Z,102163.43
2022-10-05T08:09:16.190Z,102164.61
2022-10-05T08:11:52.418Z,102167.42
2022-10-05T08:14:35.117Z,102166.46
2022-10-05T08:17:10.984Z,102165.77
2022-10-05T08:19:47.134Z,102168.65
2022-10-05T08:22:40.602Z,102169.84
2022-10-05T08:25:20.654Z,102170.58
2022-10-05T08:27:57.451Z,102171.55
2022-10-05T08:30:25.101Z,102172.45
2022-10-05T08:32:55.449Z,102173.52
2022-10-05T08:35:39.713Z,102173.25
2022-10-05T08:38:31.735Z,102176.77
2022-10-05T08:41:38.262Z,102175.92
2022-10-05T08:44:40.850Z,102175.06
2022-10-05T08:47:29.793Z,102171.45
2022-10-05T08:50:16.175Z,102171.01
2022-10-05T08:53:04.444Z,102175.19
2022-10-05T08:56:19.854Z,102178.98
2022-10-05T08:59:17.111Z,102181.27
2022-10-05T09:02:08.692Z,102183.55
2022-10-05T09:05:01.858Z,102183.98
2022-10-05T09:07:50.214Z,102190.94
2022-10-05T09:10:22.994Z,102191.63
2022-10-05T09:13:17.462Z,102196.70
2022-10-05T09:16:07.590Z,102196.39
2022-10-05T09:18:52.715Z,102202.75
2022-10-05T09:21:55.665Z,102204.83
2022-10-05T09:24:49.571Z,102207.48
2022-10-05T09:27:19.149Z,102212.69
2022-10-05T09:30:16.854Z,102214.82
2022-10-05T09:33:14.388Z,102214.93
2022-10-05T09:35:58.231Z,102221.71
2022-10-05T09:38:43.533Z,102225.30
2022-10-05T09:41:38.321Z,102224.70
2022-10-05T09:44:20.191Z,102227.05
2022-10-05T09:47:10.349Z,102228.60
2022-10-05T09:50:12.228Z,102231.86
2022-10-05T09:53:16.332Z,102234.48
2022-10-05T09:56:02.019Z,102228.27
2022-10-05T09:58:40.678Z,102224.65
2022-10-05T10:01:45.207Z,102227.25
2022-10-05T10:04:34.332Z,102223.73
2022-10-05T10:07:21.264Z,102220.54
2022-10-05T10:10:03.378Z,102224.05
2022-10-05T10:12:35.311Z,102227.32
2022-10-05T10:15:11.293Z,102225.23
2022-10-05T10:17:44.337Z,102225.98
2022-10-05T10:20:45.264Z,102224.17
2022-10-05T10:23:28.623Z,102223.80
2022-10-05T10:26:16.798Z,102217.39
2022-10-05T10:29:17.748Z,102219.52
2022-10-05T10:32:02.925Z,102220.92
2022-10-05T10:35:08.374Z,102217.66
2022-10-05T10:38:12.045Z,102219.78
2022-10-05T10:40:49.567Z,102221.98
2022-10-05T10:43:49.605Z,102218.84
2022-10-05T10:46:41.199Z,102218.04
2022-10-05T10:49:47.242Z,102221.18
2022-10-05T10:52:20.203Z,102216.53
2022-10-05T10:55:16.368Z,102214.56
2022-10-05T10:58:04.714Z,102212.91
2022-10-05T11:00:45.932Z,102212.91
2022-10-05T11:03:31.360Z,102209.80
2022-10-05T11:06:04.855Z,102208.58
2022-10-05T11:08:41.101Z,102206.85
2022-10-05T11:11:27.392Z,102202.16
2022-10-05T11:14:21.734Z,102202.64
2022-10-05T11:17:04.471Z,102202.70
2022-10-05T11:19:46.330Z,102197.08
2022-10-05T11:22:25.785Z,102189.98
2022-10-05T11:25:19.972Z,102189.11
2022-10-05T11:28:01.138Z,102184.36
2022-10-05T11:30:38.373Z,102183.68
2022-10-05T11:33:18.051Z,102180.35
2022-10-05T11:36:22.650Z,102174.69
2022-10-05T11:39:04.940Z,102173.58
2022-10-05T11:41:33.034Z,102171.38
2022-10-05T11:44:38.934Z,102170.21
2022-10-05T11:47:20.679Z,102163.37
2022-10-05T11:50:06.821Z,102163.95
2022-10-05T11:52:57.301Z,102158.92
2022-10-05T11:55:57.831Z,102153.52
2022-10-05T11:58:54.905Z,102153.95
2022-10-05T12:01:36.260Z,102157.59
2022-10-05T12:04:25.150Z,102158.02
2022-10-05T12:06:54.751Z,102156.40
2022-10-05T12:09:21.609Z,102150.53
2022-10-05T12:12:10.422Z,102150.52
2022-10-05T12:15:00.989Z,102151.75
2022-10-05T12:17:48.676Z,102147.80
2022-10-05T12:20:40.394Z,102148.08
2022-10-05T12:23:33.666Z,102145.77
2022-10-05T12:26:08.238Z,102143.74
2022-10-05T12:28:47.407Z,102144.44
2022-10-05T12:31:31.092Z,102143.95
2022-10-05T12:34:24.512Z,102139.58
2022-10-05T12:37:04.015Z,102137.80
2022-10-05T12:39:42.311Z,102136.05
2022-10-05T12:42:12.145Z,102132.30
2022-10-05T12:45:05.155Z,102134.39
2022-10-05T12:48:08.702Z,102131.89
2022-10-05T12:50:47.374Z,102133.00
2022-10-05T12:53:35.124Z,102135.58
2022-10-05T12:56:10.214Z,102134.87
2022-10-05T12:59:09.799Z,102130.55
2022-10-05T13:01:39.510Z,102126.39
2022-10-05T13:04:28.777Z,102127.71
2022-10-05T13:07:20.123Z,102127.84
2022-10-05T13:10:03.896Z,102129.38
2022-10-05T13:12:42.556Z,102131.41
2022-10-05T13:15:29.853Z,102137.98
2022-10-05T13:18:18.823Z,102135.58
2022-10-05T13:21:15.459Z,102136.33
2022-10-05T13:23:59.763Z,102137.72
2022-10-05T13:26:55.312Z,102136.86
2022-10-05T13:29:33.310Z,102136.75
2022-10-05T13:32:21.258Z,102139.31
2022-10-05T13:35:25.059Z,102136.44
2022-10-05T13:38:22.478Z,102138.52
2022-10-05T13:40:58.048Z,102137.34
2022-10-05T13:43:28.137Z,102134.95
2022-10-05T13:46:02.181Z,102129.17
2022-10-05T13:48:47.558Z,102126.13
2022-10-05T13:51:36.774Z,102128.48
2022-10-05T13:54:44.977Z,102129.87
2022-10-05T13:57:21.538Z,102127.20
2022-10-05T13:59:58.745Z,102130.83
2022-10-05T14:02:38.494Z,102128.70
2022-10-05T14:05:19.031Z,102132.27
2022-10-05T14:08:18.856Z,102130.20
2022-10-05T14:10:47.883Z,102130.99
2022-10-05T14:13:28.274Z,102129.76
2022-10-05T14:15:59.639Z,102128.85
2022-10-05T14:18:31.040Z,102128.27
2022-10-05T14:21:13.312Z,102130.19
2022-10-05T14:23:40.492Z,102131.91
2022-10-05T14:26:34.427Z,102132.44
2022-10-05T14:29:15.100Z,102133.24
2022-10-05T14:31:54.766Z,102134.69
2022-10-05T14:34:36.789Z,102131.86
2022-10-05T14:37:22.626Z,102132.40
2022-10-05T14:39:52.172Z,102132.40
2022-10-05T14:42:22.880Z,102131.11
2022-10-05T14:45:16.120Z,102138.27
2022-10-05T14:47:51.201Z,102138.86
2022-10-05T14:50:21.731Z,102138.23
2022-10-05T14:53:19.055Z,102133.27
2022-10-05T14:56:17.280Z,102136.67
2022-10-05T14:59:26.672Z,102129.95
2022-10-05T15:01:59.654Z,102128.71
2022-10-05T15:04:26.493Z,102130.33
2022-10-05T15:07:04.338Z,102127.86
2022-10-05T15:09:37.239Z,102126.69
2022-10-05T15:12:05.055Z,102124.50
2022-10-05T15:14:36.638Z,102126.10
2022-10-05T15:17:12.624Z,102126.85
2022-10-05T15:19:54.666Z,102130.96
2022-10-05T15:22:31.888Z,102131.66
2022-10-05T15:25:09.933Z,102131.29
2022-10-05T15:27:49.565Z,102133.47
2022-10-05T15:30:18.676Z,102131.77
2022-10-05T15:33:05.377Z,102129.58
2022-10-05T15:35:54.917Z,102132.41
2022-10-05T15:38:28.462Z,102134.33
2022-10-05T15:41:01.358Z,102135.70
2022-10-05T15:43:46.720Z,102136.03
2022-10-05T15:46:17.469Z,102137.04
2022-10-05T15:49:08.570Z,102137.52
2022-10-05T15:51:50.936Z,102140.20
2022-10-05T15:54:59.467Z,102137.95
2022-10-05T15:57:38.351Z,102136.95
2022-10-05T16:00:17.784Z,102138.60
2022-10-05T16:02:54.558Z,102140.14
2022-10-05T16:06:10.971Z,102138.70
2022-10-05T16:08:55.823Z,102140.85
2022-10-05T16:11:41.114Z,102139.13
2022-10-05T16:14:30.673Z,102143.09
2022-10-05T16:17:16.373Z,102139.08
2022-10-05T16:20:03.322Z,102139.23
2022-10-05T16:23:05.667Z,102138.59
2022-10-05T16:25:54.277Z,102137.52
2022-10-05T16:28:50.077Z,102141.58
2022-10-05T16:31:37.541Z,102136.30
2022-10-05T16:34:23.377Z,102136.95
2022-10-05T16:37:02.424Z,102139.99
2022-10-05T16:39:38.343Z,102142.06
2022-10-05T16:42:26.802Z,102144.20
2022-10-05T16:45:08.152Z,102144.79
2022-10-05T16:47:38.133Z,102152.64
2022-10-05T16:50:17.586Z,102155.42
2022-10-05T16:52:49.160Z,102153.88
2022-10-05T16:55:26.597Z,102157.45
2022-10-05T16:57:57.204Z,102162.85
2022-10-05T17:00:51.877Z,102164.55
2022-10-05T17:03:58.054Z,102169.24
2022-10-05T17:06:40.682Z,102169.84
2022-10-05T17:09:27.589Z,102168.99
2022-10-05T17:12:21.572Z,102169.89
2022-10-05T17:15:09.137Z,102175.55
2022-10-05T17:17:36.863Z,102176.52
2022-10-05T17:20:25.539Z,102180.10
2022-10-05T17:23:13.559Z,102179.61
2022-10-05T17:25:45.114Z,102183.85
2022-10-05T17:28:45.001Z,102186.45
2022-10-05T17:31:21.856Z,102183.95
2022-10-05T17:34:14.041Z,102187.52
2022-10-05T17:36:43.114Z,102187.41
2022-10-05T17:39:22.681Z,102190.46
2022-10-05T17:41:50.074Z,102200.55
2022-10-05T17:44:19.902Z,102206.22
2022-10-05T17:46:51.298Z,102208.94
2022-10-05T17:49:23.052Z,102212.00
2022-10-05T17:52:11.817Z,102215.83
2022-10-05T17:55:03.543Z,102215.52
2022-10-05T17:57:32.020Z,102216.80
2022-10-05T18:00:02.323Z,102221.50
2022-10-05T18:02:40.841Z,102229.63
2022-10-05T18:05:14.686Z,102231.64
2022-10-05T18:07:44.926Z,102231.02
2022-10-05T18:10:17.494Z,102234.11
2022-10-05T18:12:50.404Z,102234.10
2022-10-05T18:15:44.901Z,102236.19
2022-10-05T18:18:32.991Z,102238.23
2022-10-05T18:21:15.300Z,102236.34
2022-10-05T18:24:05.127Z,102240.67
2022-10-05T18:26:41.423Z,102243.61
2022-10-05T18:29:43.190Z,102242.44
2022-10-05T18:32:29.538Z,102250.57
2022-10-05T18:35:14.146Z,102256.11
2022-10-05T18:37:46.933Z,102259.00
2022-10-05T18:40:34.485Z,102261.99
2022-10-05T18:43:07.361Z,102262.53
2022-10-05T18:46:25.798Z,102261.88
2022-10-05T18:49:20.399Z,102266.41
2022-10-05T18:52:15.955Z,102265.24
2022-10-05T18:58:55.933Z,102267.55
2022-10-05T19:01:49.268Z,102271.27
2022-10-05T19:04:54.963Z,102273.84
2022-10-05T19:07:53.948Z,102281.60
2022-10-05T19:11:03.213Z,102285.06
2022-10-05T19:14:04.041Z,102286.98
2022-10-05T19:17:12.644Z,102288.38
2022-10-05T19:20:06.875Z,102289.34
2022-10-05T19:23:25.044Z,102290.36
2022-10-05T19:26:01.597Z,102297.05
2022-10-05T19:28:55.244Z,102299.52
2022-10-05T19:31:52.975Z,102303.98
2022-10-05T19:35:02.234Z,102307.41
2022-10-05T19:37:45.607Z,102309.10
2022-10-05T19:40:41.853Z,102309.53
2022-10-05T19:43:44.741Z,102308.69
2022-10-05T19:46:33.339Z,102308.46
2022-10-05T19:49:05.387Z,102310.99
2022-10-05T19:51:48.356Z,102312.75
2022-10-05T19:54:48.244Z,102316.27
2022-10-05T19:57:45.782Z,102316.64
2022-10-05T20:00:24.863Z,102318.30
2022-10-05T20:03:14.155Z,102320.82
2022-10-05T20:05:43.955Z,102324.98
2022-10-05T20:08:27.771Z,102328.14
2022-10-05T20:11:22.558Z,102334.71
2022-10-05T20:13:54.688Z,102338.98
2022-10-05T20:16:52.632Z,102338.55
2022-10-05T20:19:51.862Z,102341.39
2022-10-05T20:22:52.730Z,102339.78
2022-10-05T20:25:22.608Z,102345.33
2022-10-05T20:27:58.302Z,102344.53
2022-10-05T20:30:29.018Z,102345.98
2022-10-05T20:33:00.740Z,102350.78
2022-10-05T20:35:33.479Z,102351.69
2022-10-05T20:38:10.835Z,102357.35
2022-10-05T20:41:12.179Z,102358.63
2022-10-05T20:43:49.893Z,102361.39
2022-10-05T20:46:21.286Z,102364.50
2022-10-05T20:48:55.886Z,102365.57
2022-10-05T20:51:35.067Z,102367.59
2022-10-05T20:54:08.391Z,102371.77
2022-10-05T20:56:35.955Z,102374.55
2022-10-05T20:59:04.704Z,102374.70
2022-10-05T21:01:34.456Z,102376.84
2022-10-05T21:04:07.212Z,102379.71
2022-10-05T21:06:36.443Z,102378.02
2022-10-05T21:09:07.484Z,102376.14
2022-10-05T21:11:35.904Z,102374.71
2022-10-05T21:14:05.850Z,102377.16
2022-10-05T21:16:43.265Z,102377.97
2022-10-05T21:19:15.421Z,102377.43
2022-10-05T21:21:52.500Z,102379.77
2022-10-05T21:24:29.056Z,102380.04
2022-10-05T21:26:57.738Z,102377.73
2022-10-05T21:29:26.502Z,102380.85
2022-10-05T21:31:56.182Z,102375.02
2022-10-05T21:34:30.910Z,102373.63
2022-10-05T21:37:02.318Z,102372.73
2022-10-05T21:39:31.095Z,102370.96
2022-10-05T21:41:58.301Z,102370.64
2022-10-05T21:44:31.712Z,102368.36
2022-10-05T21:46:58.884Z,102366.85
2022-10-05T21:49:35.621Z,102367.23
2022-10-05T21:52:07.066Z,102365.94
2022-10-05T21:54:37.049Z,102365.41
2022-10-05T21:57:07.735Z,102364.94
2022-10-05T21:59:36.568Z,102363.12
2022-10-05T22:02:08.614Z,102363.65
2022-10-05T22:04:38.601Z,102362.48
2022-10-05T22:07:20.484Z,102351.20
2022-10-05T22:09:51.915Z,102353.45
2022-10-05T22:12:20.796Z,102347.42
2022-10-05T22:14:48.962Z,102342.14
2022-10-05T22:17:24.775Z,102340.48
2022-10-05T22:19:59.466Z,102338.91
2022-10-05T22:22:31.884Z,102335.99
2022-10-05T22:25:03.183Z,102334.97
2022-10-05T22:27:36.131Z,102333.41
2022-10-05T22:30:05.432Z,102332.14
2022-10-05T22:32:41.271Z,102327.39
2022-10-05T22:35:11.746Z,102323.27
2022-10-05T22:37:43.481Z,102324.08
2022-10-05T22:40:18.162Z,102320.33
2022-10-05T22:42:45.508Z,102321.62
2022-10-05T22:45:15.220Z,102320.00
2022-10-05T22:47:44.232Z,102325.84
2022-10-05T22:50:15.719Z,102318.92
2022-10-05T22:52:55.425Z,102319.36
2022-10-05T22:55:24.723Z,102320.05
2022-10-05T22:57:55.456Z,102320.17
2022-10-05T23:00:35.214Z,102320.43
2022-10-05T23:03:39.357Z,102317.02
2022-10-05T23:06:13.622Z,102318.77
2022-10-05T23:08:44.228Z,102319.19
2022-10-05T23:11:17.045Z,102320.80
2022-10-05T23:13:50.487Z,102317.77
2022-10-05T23:16:20.369Z,102315.14
2022-10-05T23:18:51.640Z,102311.67
2022-10-05T23:21:22.353Z,102310.17
2022-10-05T23:23:55.019Z,102310.70
2022-10-05T23:26:36.834Z,102309.05
2022-10-05T23:29:10.239Z,102308.73
2022-10-05T23:31:37.407Z,102309.48
2022-10-05T23:34:09.688Z,102305.85
2022-10-05T23:36:37.858Z,102304.23
2022-10-05T23:39:07.045Z,102300.23
2022-10-05T23:41:43.966Z,102297.13
2022-10-05T23:44:13.611Z,102299.39
2022-10-05T23:46:43.013Z,102292.39
2022-10-05T23:49:16.200Z,102291.15
2022-10-05T23:51:49.299Z,102287.09
2022-10-05T23:54:18.377Z,102282.86
2022-10-05T23:56:54.332Z,102288.85
2022-10-05T23:59:25.896Z,102294.52
